sensor_id;sensor_type;location;lat;lon;timestamp;pressure;altitude;pressure_sealevel;temperature;humidity
65384;BME280;51986;52.788;41.368;2023-03-11T00:01:03;98841.38;;;-3.53;55.70
65384;BME280;51986;52.788;41.368;2023-03-11T00:03:30;98846.09;;;-3.55;55.06
65384;BME280;51986;52.788;41.368;2023-03-11T00:06:00;98844.38;;;-3.51;55.29
65384;BME280;51986;52.788;41.368;2023-03-11T00:08:27;98843.22;;;-3.63;55.65
65384;BME280;51986;52.788;41.368;2023-03-11T00:10:56;98813.19;;;-3.59;55.08
65384;BME280;51986;52.788;41.368;2023-03-11T00:13:23;98855.91;;;-3.40;54.59
65384;BME280;51986;52.788;41.368;2023-03-11T00:15:52;98839.66;;;-3.41;55.07
65384;BME280;51986;52.788;41.368;2023-03-11T00:18:20;98822.94;;;-3.35;54.61
65384;BME280;51986;52.788;41.368;2023-03-11T00:20:47;98829.91;;;-3.26;54.23
65384;BME280;51986;52.788;41.368;2023-03-11T00:23:14;98844.69;;;-3.53;55.39
65384;BME280;51986;52.788;41.368;2023-03-11T00:25:43;98834.38;;;-3.53;55.38
65384;BME280;51986;52.788;41.368;2023-03-11T00:28:11;98834.69;;;-3.46;54.44
65384;BME280;51986;52.788;41.368;2023-03-11T00:30:40;98812.34;;;-3.42;54.49
65384;BME280;51986;52.788;41.368;2023-03-11T00:33:08;98814.13;;;-3.34;53.69
65384;BME280;51986;52.788;41.368;2023-03-11T00:35:39;98815.09;;;-3.47;54.05
65384;BME280;51986;52.788;41.368;2023-03-11T00:38:14;98811.53;;;-3.72;55.19
65384;BME280;51986;52.788;41.368;2023-03-11T00:40:41;98823.69;;;-3.72;54.84
65384;BME280;51986;52.788;41.368;2023-03-11T00:43:09;98811.34;;;-3.58;54.77
65384;BME280;51986;52.788;41.368;2023-03-11T00:45:36;98823.31;;;-3.45;54.71
65384;BME280;51986;52.788;41.368;2023-03-11T00:48:03;98839.94;;;-3.34;54.36
65384;BME280;51986;52.788;41.368;2023-03-11T00:50:32;98826.34;;;-3.13;54.40
65384;BME280;51986;52.788;41.368;2023-03-11T00:53:00;98823.47;;;-3.50;54.81
65384;BME280;51986;52.788;41.368;2023-03-11T00:55:30;98835.06;;;-3.26;54.84
65384;BME280;51986;52.788;41.368;2023-03-11T00:58:00;98829.97;;;-3.44;53.86
65384;BME280;51986;52.788;41.368;2023-03-11T01:00:41;98852.59;;;-3.58;54.93
65384;BME280;51986;52.788;41.368;2023-03-11T01:03:08;98857.16;;;-3.55;55.27
65384;BME280;51986;52.788;41.368;2023-03-11T01:05:35;98840.06;;;-3.68;54.33
65384;BME280;51986;52.788;41.368;2023-03-11T01:08:03;98838.66;;;-3.66;54.09
65384;BME280;51986;52.788;41.368;2023-03-11T01:10:32;98844.38;;;-3.43;54.34
65384;BME280;51986;52.788;41.368;2023-03-11T01:12:59;98843.97;;;-3.62;54.65
65384;BME280;51986;52.788;41.368;2023-03-11T01:15:32;98850.81;;;-3.66;54.98
65384;BME280;51986;52.788;41.368;2023-03-11T01:18:00;98841.63;;;-3.38;54.01
65384;BME280;51986;52.788;41.368;2023-03-11T01:20:27;98825.50;;;-3.64;54.02
65384;BME280;51986;52.788;41.368;2023-03-11T01:22:54;98844.94;;;-3.37;54.31
65384;BME280;51986;52.788;41.368;2023-03-11T01:25:22;98849.34;;;-3.38;53.49
65384;BME280;51986;52.788;41.368;2023-03-11T01:27:50;98852.63;;;-2.90;53.16
65384;BME280;51986;52.788;41.368;2023-03-11T01:30:22;98860.91;;;-3.06;53.48
65384;BME280;51986;52.788;41.368;2023-03-11T01:32:52;98830.09;;;-3.40;53.69
65384;BME280;51986;52.788;41.368;2023-03-11T01:35:22;98860.66;;;-3.13;53.30
65384;BME280;51986;52.788;41.368;2023-03-11T01:37:49;98871.00;;;-2.92;53.95
65384;BME280;51986;52.788;41.368;2023-03-11T01:40:25;98868.81;;;-3.11;53.81
65384;BME280;51986;52.788;41.368;2023-03-11T01:42:55;98875.47;;;-3.01;53.47
65384;BME280;51986;52.788;41.368;2023-03-11T01:45:26;98879.63;;;-2.79;53.05
65384;BME280;51986;52.788;41.368;2023-03-11T01:47:57;98873.22;;;-2.82;53.38
65384;BME280;51986;52.788;41.368;2023-03-11T01:50:26;98884.84;;;-2.67;53.25
65384;BME280;51986;52.788;41.368;2023-03-11T01:52:56;98874.88;;;-3.07;54.01
65384;BME280;51986;52.788;41.368;2023-03-11T01:55:23;98860.16;;;-2.76;53.27
65384;BME280;51986;52.788;41.368;2023-03-11T01:57:51;98888.28;;;-2.54;53.52
65384;BME280;51986;52.788;41.368;2023-03-11T02:00:19;98869.16;;;-2.62;52.77
65384;BME280;51986;52.788;41.368;2023-03-11T02:02:48;98870.69;;;-2.40;53.07
65384;BME280;51986;52.788;41.368;2023-03-11T02:05:19;98848.84;;;-2.63;52.98
65384;BME280;51986;52.788;41.368;2023-03-11T02:07:48;98868.91;;;-2.69;54.02
65384;BME280;51986;52.788;41.368;2023-03-11T02:10:18;98867.03;;;-2.39;52.44
65384;BME280;51986;52.788;41.368;2023-03-11T02:12:47;98863.91;;;-2.44;52.29
65384;BME280;51986;52.788;41.368;2023-03-11T02:15:24;98850.34;;;-2.41;52.29
65384;BME280;51986;52.788;41.368;2023-03-11T02:17:51;98868.94;;;-2.48;52.35
65384;BME280;51986;52.788;41.368;2023-03-11T02:23:12;98891.31;;;-2.82;52.84
65384;BME280;51986;52.788;41.368;2023-03-11T02:28:14;98883.53;;;-2.73;52.66
65384;BME280;51986;52.788;41.368;2023-03-11T02:30:43;98894.91;;;-2.44;52.55
65384;BME280;51986;52.788;41.368;2023-03-11T02:33:11;98862.03;;;-2.86;53.36
65384;BME280;51986;52.788;41.368;2023-03-11T02:35:40;98892.28;;;-2.95;54.33
65384;BME280;51986;52.788;41.368;2023-03-11T02:38:08;98873.50;;;-2.74;53.80
65384;BME280;51986;52.788;41.368;2023-03-11T02:43:29;98872.91;;;-2.50;53.06
65384;BME280;51986;52.788;41.368;2023-03-11T02:45:58;98877.81;;;-2.58;53.65
65384;BME280;51986;52.788;41.368;2023-03-11T02:48:27;98874.53;;;-2.46;52.99
65384;BME280;51986;52.788;41.368;2023-03-11T02:50:55;98872.31;;;-2.56;53.52
65384;BME280;51986;52.788;41.368;2023-03-11T02:53:25;98867.16;;;-2.56;53.09
65384;BME280;51986;52.788;41.368;2023-03-11T02:55:53;98893.16;;;-2.61;54.02
65384;BME280;51986;52.788;41.368;2023-03-11T02:58:20;98882.22;;;-2.58;53.72
65384;BME280;51986;52.788;41.368;2023-03-11T03:00:47;98853.75;;;-2.49;53.60
65384;BME280;51986;52.788;41.368;2023-03-11T03:03:17;98862.69;;;-2.47;53.93
65384;BME280;51986;52.788;41.368;2023-03-11T03:05:44;98853.94;;;-2.55;54.40
65384;BME280;51986;52.788;41.368;2023-03-11T03:08:11;98861.81;;;-2.30;53.27
65384;BME280;51986;52.788;41.368;2023-03-11T03:10:40;98876.16;;;-2.41;53.79
65384;BME280;51986;52.788;41.368;2023-03-11T03:13:07;98860.25;;;-2.64;54.08
65384;BME280;51986;52.788;41.368;2023-03-11T03:15:34;98850.16;;;-2.57;54.09
65384;BME280;51986;52.788;41.368;2023-03-11T03:18:01;98851.66;;;-2.77;54.23
65384;BME280;51986;52.788;41.368;2023-03-11T03:20:28;98824.28;;;-2.99;55.24
65384;BME280;51986;52.788;41.368;2023-03-11T03:22:58;98852.41;;;-2.76;55.16
65384;BME280;51986;52.788;41.368;2023-03-11T03:25:28;98835.59;;;-2.83;55.53
65384;BME280;51986;52.788;41.368;2023-03-11T03:27:58;98837.63;;;-2.67;55.30
65384;BME280;51986;52.788;41.368;2023-03-11T03:30:25;98833.34;;;-2.42;54.65
65384;BME280;51986;52.788;41.368;2023-03-11T03:32:52;98848.31;;;-2.57;54.75
65384;BME280;51986;52.788;41.368;2023-03-11T03:35:20;98822.44;;;-2.69;55.21
65384;BME280;51986;52.788;41.368;2023-03-11T03:38:08;98841.94;;;-2.80;55.94
65384;BME280;51986;52.788;41.368;2023-03-11T03:40:37;98831.19;;;-2.61;55.33
65384;BME280;51986;52.788;41.368;2023-03-11T03:43:06;98824.69;;;-2.46;55.35
65384;BME280;51986;52.788;41.368;2023-03-11T03:45:34;98830.94;;;-2.26;54.40
65384;BME280;51986;52.788;41.368;2023-03-11T03:48:01;98850.94;;;-2.36;54.83
65384;BME280;51986;52.788;41.368;2023-03-11T03:50:32;98822.88;;;-2.46;54.69
65384;BME280;51986;52.788;41.368;2023-03-11T03:52:59;98837.75;;;-2.64;56.31
65384;BME280;51986;52.788;41.368;2023-03-11T03:55:26;98821.31;;;-2.38;55.52
65384;BME280;51986;52.788;41.368;2023-03-11T03:57:55;98795.81;;;-2.28;55.37
65384;BME280;51986;52.788;41.368;2023-03-11T04:00:24;98821.66;;;-2.28;56.01
65384;BME280;51986;52.788;41.368;2023-03-11T04:02:57;98795.47;;;-2.38;55.72
65384;BME280;51986;52.788;41.368;2023-03-11T04:05:32;98789.34;;;-2.34;55.36
65384;BME280;51986;52.788;41.368;2023-03-11T04:07:59;98792.50;;;-2.28;55.41
65384;BME280;51986;52.788;41.368;2023-03-11T04:10:27;98796.72;;;-2.23;55.84
65384;BME280;51986;52.788;41.368;2023-03-11T04:12:54;98816.41;;;-1.86;55.15
65384;BME280;51986;52.788;41.368;2023-03-11T04:15:21;98814.59;;;-2.18;55.36
65384;BME280;51986;52.788;41.368;2023-03-11T04:17:49;98805.06;;;-2.06;55.35
65384;BME280;51986;52.788;41.368;2023-03-11T04:20:16;98806.03;;;-1.98;56.02
65384;BME280;51986;52.788;41.368;2023-03-11T04:22:47;98786.63;;;-2.16;56.46
65384;BME280;51986;52.788;41.368;2023-03-11T04:25:14;98787.78;;;-2.26;55.37
65384;BME280;51986;52.788;41.368;2023-03-11T04:27:41;98796.09;;;-2.08;55.59
65384;BME280;51986;52.788;41.368;2023-03-11T04:30:09;98775.34;;;-1.99;55.76
65384;BME280;51986;52.788;41.368;2023-03-11T04:32:36;98795.63;;;-1.89;55.42
65384;BME280;51986;52.788;41.368;2023-03-11T04:35:04;98769.69;;;-1.81;55.16
65384;BME280;51986;52.788;41.368;2023-03-11T04:37:32;98801.16;;;-1.79;55.34
65384;BME280;51986;52.788;41.368;2023-03-11T04:39:59;98789.69;;;-1.90;54.98
65384;BME280;51986;52.788;41.368;2023-03-11T04:42:28;98810.63;;;-1.83;55.27
65384;BME280;51986;52.788;41.368;2023-03-11T04:44:56;98792.31;;;-1.65;54.45
65384;BME280;51986;52.788;41.368;2023-03-11T04:47:24;98794.38;;;-1.46;54.88
65384;BME280;51986;52.788;41.368;2023-03-11T04:49:51;98829.19;;;-1.68;54.97
65384;BME280;51986;52.788;41.368;2023-03-11T04:52:18;98805.59;;;-1.42;54.70
65384;BME280;51986;52.788;41.368;2023-03-11T04:54:45;98816.78;;;-1.51;54.47
65384;BME280;51986;52.788;41.368;2023-03-11T04:57:12;98808.28;;;-1.51;54.88
65384;BME280;51986;52.788;41.368;2023-03-11T04:59:54;98829.31;;;-1.28;53.99
65384;BME280;51986;52.788;41.368;2023-03-11T05:02:22;98812.59;;;-1.18;54.74
65384;BME280;51986;52.788;41.368;2023-03-11T05:04:53;98820.47;;;-1.27;54.41
65384;BME280;51986;52.788;41.368;2023-03-11T05:07:20;98819.94;;;-1.45;54.83
65384;BME280;51986;52.788;41.368;2023-03-11T05:09:47;98828.16;;;-1.31;54.28
65384;BME280;51986;52.788;41.368;2023-03-11T05:12:14;98833.28;;;-0.94;54.09
65384;BME280;51986;52.788;41.368;2023-03-11T05:14:46;98836.97;;;-0.83;53.27
65384;BME280;51986;52.788;41.368;2023-03-11T05:17:13;98841.47;;;-0.80;53.41
65384;BME280;51986;52.788;41.368;2023-03-11T05:19:40;98820.63;;;-0.71;53.04
65384;BME280;51986;52.788;41.368;2023-03-11T05:22:15;98830.66;;;-0.69;53.21
65384;BME280;51986;52.788;41.368;2023-03-11T05:24:42;98825.34;;;-0.61;53.68
65384;BME280;51986;52.788;41.368;2023-03-11T05:27:09;98836.69;;;-0.53;52.88
65384;BME280;51986;52.788;41.368;2023-03-11T05:29:38;98819.44;;;-0.61;53.76
65384;BME280;51986;52.788;41.368;2023-03-11T05:32:11;98825.44;;;-0.17;52.39
65384;BME280;51986;52.788;41.368;2023-03-11T05:34:40;98837.28;;;0.12;52.45
65384;BME280;51986;52.788;41.368;2023-03-11T05:37:08;98835.13;;;0.46;50.97
65384;BME280;51986;52.788;41.368;2023-03-11T05:39:35;98822.41;;;0.41;51.47
65384;BME280;51986;52.788;41.368;2023-03-11T05:42:03;98785.16;;;0.17;51.20
65384;BME280;51986;52.788;41.368;2023-03-11T05:44:31;98817.72;;;0.30;51.61
65384;BME280;51986;52.788;41.368;2023-03-11T05:46:58;98809.63;;;0.64;51.40
65384;BME280;51986;52.788;41.368;2023-03-11T05:49:26;98828.97;;;0.66;51.02
65384;BME280;51986;52.788;41.368;2023-03-11T05:51:55;98818.66;;;0.70;50.84
65384;BME280;51986;52.788;41.368;2023-03-11T05:54:25;98808.78;;;0.60;50.57
65384;BME280;51986;52.788;41.368;2023-03-11T05:56:53;98820.84;;;0.52;50.68
65384;BME280;51986;52.788;41.368;2023-03-11T05:59:21;98816.00;;;0.66;51.67
65384;BME280;51986;52.788;41.368;2023-03-11T06:01:54;98793.81;;;0.88;50.64
65384;BME280;51986;52.788;41.368;2023-03-11T06:04:23;98832.94;;;0.95;50.50
65384;BME280;51986;52.788;41.368;2023-03-11T06:06:50;98809.59;;;0.95;50.20
65384;BME280;51986;52.788;41.368;2023-03-11T06:09:19;98832.38;;;1.21;49.80
65384;BME280;51986;52.788;41.368;2023-03-11T06:11:47;98827.84;;;1.18;49.71
65384;BME280;51986;52.788;41.368;2023-03-11T06:14:15;98821.25;;;1.21;50.11
65384;BME280;51986;52.788;41.368;2023-03-11T06:16:45;98813.38;;;1.37;49.89
65384;BME280;51986;52.788;41.368;2023-03-11T06:19:12;98830.63;;;1.64;49.25
65384;BME280;51986;52.788;41.368;2023-03-11T06:21:44;98805.03;;;1.66;49.03
65384;BME280;51986;52.788;41.368;2023-03-11T06:24:12;98812.84;;;1.47;49.49
65384;BME280;51986;52.788;41.368;2023-03-11T06:26:39;98824.41;;;1.69;49.87
65384;BME280;51986;52.788;41.368;2023-03-11T06:29:11;98790.22;;;1.67;48.95
65384;BME280;51986;52.788;41.368;2023-03-11T06:31:39;98787.72;;;1.74;49.09
65384;BME280;51986;52.788;41.368;2023-03-11T06:34:10;98780.00;;;2.23;48.25
65384;BME280;51986;52.788;41.368;2023-03-11T06:36:38;98777.59;;;2.11;47.99
65384;BME280;51986;52.788;41.368;2023-03-11T06:39:04;98817.38;;;2.12;48.04
65384;BME280;51986;52.788;41.368;2023-03-11T06:41:33;98824.16;;;2.16;48.28
65384;BME280;51986;52.788;41.368;2023-03-11T06:44:02;98818.38;;;2.26;47.22
65384;BME280;51986;52.788;41.368;2023-03-11T06:46:29;98794.38;;;2.36;47.72
65384;BME280;51986;52.788;41.368;2023-03-11T06:48:56;98793.81;;;2.73;46.77
65384;BME280;51986;52.788;41.368;2023-03-11T06:51:23;98828.13;;;3.05;46.21
65384;BME280;51986;52.788;41.368;2023-03-11T06:53:52;98826.00;;;2.88;46.34
65384;BME280;51986;52.788;41.368;2023-03-11T06:56:22;98812.19;;;2.84;47.17
65384;BME280;51986;52.788;41.368;2023-03-11T06:58:54;98800.03;;;2.92;46.67
65384;BME280;51986;52.788;41.368;2023-03-11T07:01:25;98810.03;;;2.90;46.48
65384;BME280;51986;52.788;41.368;2023-03-11T07:03:54;98796.50;;;2.80;46.43
65384;BME280;51986;52.788;41.368;2023-03-11T07:06:25;98817.09;;;3.16;46.23
65384;BME280;51986;52.788;41.368;2023-03-11T07:08:58;98795.31;;;3.31;46.53
65384;BME280;51986;52.788;41.368;2023-03-11T07:11:27;98799.59;;;3.16;47.05
65384;BME280;51986;52.788;41.368;2023-03-11T07:14:05;98819.38;;;3.21;47.43
65384;BME280;51986;52.788;41.368;2023-03-11T07:16:37;98784.44;;;3.59;46.80
65384;BME280;51986;52.788;41.368;2023-03-11T07:19:11;98783.16;;;3.79;45.91
65384;BME280;51986;52.788;41.368;2023-03-11T07:21:40;98776.53;;;3.89;46.16
65384;BME280;51986;52.788;41.368;2023-03-11T07:24:11;98772.28;;;4.11;45.55
65384;BME280;51986;52.788;41.368;2023-03-11T07:26:39;98776.22;;;4.38;44.46
65384;BME280;51986;52.788;41.368;2023-03-11T07:29:09;98778.59;;;4.10;45.00
65384;BME280;51986;52.788;41.368;2023-03-11T07:31:37;98773.16;;;4.29;45.23
65384;BME280;51986;52.788;41.368;2023-03-11T07:34:06;98765.97;;;4.67;45.29
65384;BME280;51986;52.788;41.368;2023-03-11T07:36:33;98759.84;;;5.04;44.09
65384;BME280;51986;52.788;41.368;2023-03-11T07:39:02;98768.34;;;4.86;43.50
65384;BME280;51986;52.788;41.368;2023-03-11T07:41:31;98772.59;;;5.12;43.08
65384;BME280;51986;52.788;41.368;2023-03-11T07:44:02;98760.25;;;5.13;42.91
65384;BME280;51986;52.788;41.368;2023-03-11T07:46:30;98771.59;;;5.49;42.94
65384;BME280;51986;52.788;41.368;2023-03-11T07:48:57;98755.09;;;5.34;42.94
65384;BME280;51986;52.788;41.368;2023-03-11T07:51:26;98762.56;;;5.32;42.87
65384;BME280;51986;52.788;41.368;2023-03-11T07:53:55;98776.41;;;5.33;42.55
65384;BME280;51986;52.788;41.368;2023-03-11T07:56:28;98753.50;;;5.05;43.28
65384;BME280;51986;52.788;41.368;2023-03-11T07:58:57;98769.38;;;5.58;42.46
65384;BME280;51986;52.788;41.368;2023-03-11T08:01:29;98747.72;;;5.68;42.01
65384;BME280;51986;52.788;41.368;2023-03-11T08:03:56;98762.53;;;5.25;42.10
65384;BME280;51986;52.788;41.368;2023-03-11T08:06:26;98757.28;;;5.18;43.72
65384;BME280;51986;52.788;41.368;2023-03-11T08:08:53;98753.91;;;5.14;43.21
65384;BME280;51986;52.788;41.368;2023-03-11T08:11:20;98746.19;;;5.50;43.70
65384;BME280;51986;52.788;41.368;2023-03-11T08:13:48;98740.22;;;5.46;42.51
65384;BME280;51986;52.788;41.368;2023-03-11T08:16:17;98758.44;;;5.28;43.19
65384;BME280;51986;52.788;41.368;2023-03-11T08:18:46;98746.41;;;5.09;43.23
65384;BME280;51986;52.788;41.368;2023-03-11T08:21:17;98748.72;;;5.25;43.48
65384;BME280;51986;52.788;41.368;2023-03-11T08:23:45;98748.00;;;5.31;44.14
65384;BME280;51986;52.788;41.368;2023-03-11T08:26:14;98740.56;;;5.40;43.82
65384;BME280;51986;52.788;41.368;2023-03-11T08:28:42;98732.34;;;5.46;43.47
65384;BME280;51986;52.788;41.368;2023-03-11T08:31:18;98744.94;;;5.08;44.24
65384;BME280;51986;52.788;41.368;2023-03-11T08:33:48;98716.44;;;4.85;44.53
65384;BME280;51986;52.788;41.368;2023-03-11T08:36:16;98748.03;;;4.62;45.77
65384;BME280;51986;52.788;41.368;2023-03-11T08:38:43;98725.63;;;4.54;46.32
65384;BME280;51986;52.788;41.368;2023-03-11T08:41:10;98749.84;;;4.51;46.65
65384;BME280;51986;52.788;41.368;2023-03-11T08:43:37;98753.31;;;4.69;46.13
65384;BME280;51986;52.788;41.368;2023-03-11T08:46:05;98741.97;;;4.47;45.98
65384;BME280;51986;52.788;41.368;2023-03-11T08:48:34;98727.47;;;4.50;45.86
65384;BME280;51986;52.788;41.368;2023-03-11T08:51:08;98710.50;;;4.29;45.94
65384;BME280;51986;52.788;41.368;2023-03-11T08:53:36;98724.63;;;4.80;45.89
65384;BME280;51986;52.788;41.368;2023-03-11T08:56:04;98713.88;;;4.92;44.80
65384;BME280;51986;52.788;41.368;2023-03-11T08:58:31;98685.94;;;5.07;44.41
65384;BME280;51986;52.788;41.368;2023-03-11T09:00:58;98686.03;;;5.57;43.23
65384;BME280;51986;52.788;41.368;2023-03-11T09:03:25;98675.94;;;5.59;43.80
65384;BME280;51986;52.788;41.368;2023-03-11T09:05:59;98666.97;;;6.03;42.64
65384;BME280;51986;52.788;41.368;2023-03-11T09:08:27;98692.03;;;5.79;42.83
65384;BME280;51986;52.788;41.368;2023-03-11T09:10:54;98683.41;;;5.50;43.57
65384;BME280;51986;52.788;41.368;2023-03-11T09:13:22;98684.06;;;5.11;44.25
65384;BME280;51986;52.788;41.368;2023-03-11T09:15:50;98696.38;;;5.03;44.22
65384;BME280;51986;52.788;41.368;2023-03-11T09:18:18;98694.81;;;4.88;44.70
65384;BME280;51986;52.788;41.368;2023-03-11T09:20:45;98685.88;;;4.92;44.91
65384;BME280;51986;52.788;41.368;2023-03-11T09:23:14;98691.50;;;5.02;45.10
65384;BME280;51986;52.788;41.368;2023-03-11T09:25:41;98664.25;;;5.03;44.96
65384;BME280;51986;52.788;41.368;2023-03-11T09:28:08;98677.31;;;5.10;44.54
65384;BME280;51986;52.788;41.368;2023-03-11T09:30:35;98669.81;;;5.01;44.36
65384;BME280;51986;52.788;41.368;2023-03-11T09:33:02;98655.72;;;5.27;44.74
65384;BME280;51986;52.788;41.368;2023-03-11T09:35:29;98656.50;;;5.46;44.40
65384;BME280;51986;52.788;41.368;2023-03-11T09:37:57;98652.03;;;5.75;44.31
65384;BME280;51986;52.788;41.368;2023-03-11T09:40:25;98649.03;;;5.69;44.49
65384;BME280;51986;52.788;41.368;2023-03-11T09:46:18;98669.22;;;5.58;44.93
65384;BME280;51986;52.788;41.368;2023-03-11T09:51:28;98662.81;;;5.16;45.20
65384;BME280;51986;52.788;41.368;2023-03-11T09:54:10;98652.66;;;5.04;45.98
65384;BME280;51986;52.788;41.368;2023-03-11T09:56:40;98649.66;;;4.95;46.72
65384;BME280;51986;52.788;41.368;2023-03-11T09:59:17;98644.47;;;5.02;46.52
65384;BME280;51986;52.788;41.368;2023-03-11T10:01:47;98635.31;;;4.53;46.89
65384;BME280;51986;52.788;41.368;2023-03-11T10:04:29;98626.75;;;4.59;47.22
65384;BME280;51986;52.788;41.368;2023-03-11T10:07:00;98624.22;;;4.81;46.83
65384;BME280;51986;52.788;41.368;2023-03-11T10:09:45;98623.47;;;4.73;47.15
65384;BME280;51986;52.788;41.368;2023-03-11T10:12:33;98627.94;;;4.76;46.85
65384;BME280;51986;52.788;41.368;2023-03-11T10:28:45;98633.94;;;4.80;47.37
65384;BME280;51986;52.788;41.368;2023-03-11T10:39:32;98639.66;;;4.34;49.35
65384;BME280;51986;52.788;41.368;2023-03-11T10:42:02;98630.44;;;4.44;48.54
65384;BME280;51986;52.788;41.368;2023-03-11T10:44:38;98621.06;;;4.43;48.74
65384;BME280;51986;52.788;41.368;2023-03-11T10:47:06;98639.78;;;4.52;49.01
65384;BME280;51986;52.788;41.368;2023-03-11T10:49:39;98639.16;;;4.14;50.41
65384;BME280;51986;52.788;41.368;2023-03-11T10:52:06;98615.16;;;3.87;51.23
65384;BME280;51986;52.788;41.368;2023-03-11T10:54:36;98631.97;;;3.94;51.27
65384;BME280;51986;52.788;41.368;2023-03-11T10:57:28;98618.44;;;3.77;52.15
65384;BME280;51986;52.788;41.368;2023-03-11T10:59:55;98618.44;;;3.77;52.38
65384;BME280;51986;52.788;41.368;2023-03-11T11:07:46;98617.25;;;3.71;53.38
65384;BME280;51986;52.788;41.368;2023-03-11T11:10:20;98618.50;;;3.40;54.56
65384;BME280;51986;52.788;41.368;2023-03-11T11:13:01;98601.31;;;3.35;54.38
65384;BME280;51986;52.788;41.368;2023-03-11T11:15:35;98572.63;;;3.32;54.61
65384;BME280;51986;52.788;41.368;2023-03-11T11:23:30;98601.72;;;3.37;55.55
65384;BME280;51986;52.788;41.368;2023-03-11T11:26:02;98586.50;;;3.47;54.68
65384;BME280;51986;52.788;41.368;2023-03-11T11:28:31;98589.78;;;3.36;54.93
65384;BME280;51986;52.788;41.368;2023-03-11T11:31:04;98607.41;;;3.09;56.14
65384;BME280;51986;52.788;41.368;2023-03-11T11:33:38;98580.75;;;2.86;56.50
65384;BME280;51986;52.788;41.368;2023-03-11T11:36:14;98582.63;;;2.89;57.07
65384;BME280;51986;52.788;41.368;2023-03-11T11:38:42;98572.34;;;2.66;57.64
65384;BME280;51986;52.788;41.368;2023-03-11T11:41:16;98601.25;;;2.87;57.24
65384;BME280;51986;52.788;41.368;2023-03-11T11:43:59;98580.19;;;2.70;58.75
65384;BME280;51986;52.788;41.368;2023-03-11T11:52:48;98597.41;;;2.78;59.01
65384;BME280;51986;52.788;41.368;2023-03-11T11:55:04;98596.03;;;2.54;59.45
65384;BME280;51986;52.788;41.368;2023-03-11T11:57:33;98585.25;;;2.55;59.66
65384;BME280;51986;52.788;41.368;2023-03-11T12:00:01;98561.09;;;2.25;61.04
65384;BME280;51986;52.788;41.368;2023-03-11T12:05:44;98579.91;;;2.45;61.59
65384;BME280;51986;52.788;41.368;2023-03-11T12:08:51;98584.34;;;2.41;61.08
65384;BME280;51986;52.788;41.368;2023-03-11T12:11:45;98566.50;;;2.43;61.54
65384;BME280;51986;52.788;41.368;2023-03-11T12:14:24;98553.41;;;2.35;61.23
65384;BME280;51986;52.788;41.368;2023-03-11T12:16:56;98560.53;;;2.39;62.09
65384;BME280;51986;52.788;41.368;2023-03-11T12:19:33;98557.44;;;2.29;62.57
65384;BME280;51986;52.788;41.368;2023-03-11T12:22:40;98546.28;;;2.63;61.54
65384;BME280;51986;52.788;41.368;2023-03-11T12:25:01;98538.91;;;2.34;62.65
65384;BME280;51986;52.788;41.368;2023-03-11T12:27:53;98526.34;;;2.10;63.77
65384;BME280;51986;52.788;41.368;2023-03-11T12:30:30;98536.19;;;2.24;63.29
65384;BME280;51986;52.788;41.368;2023-03-11T12:33:11;98507.03;;;2.11;64.59
65384;BME280;51986;52.788;41.368;2023-03-11T12:35:47;98538.50;;;2.02;64.59
65384;BME280;51986;52.788;41.368;2023-03-11T12:41:04;98534.22;;;2.17;65.22
65384;BME280;51986;52.788;41.368;2023-03-11T12:46:03;98524.75;;;2.02;65.75
65384;BME280;51986;52.788;41.368;2023-03-11T12:48:49;98562.34;;;2.08;66.04
65384;BME280;51986;52.788;41.368;2023-03-11T12:53:57;98513.16;;;1.96;65.91
65384;BME280;51986;52.788;41.368;2023-03-11T12:56:44;98515.22;;;2.13;66.02
65384;BME280;51986;52.788;41.368;2023-03-11T13:10:48;98512.72;;;2.20;66.36
65384;BME280;51986;52.788;41.368;2023-03-11T13:13:35;98526.03;;;2.15;67.15
65384;BME280;51986;52.788;41.368;2023-03-11T13:16:37;98508.69;;;2.26;67.06
65384;BME280;51986;52.788;41.368;2023-03-11T13:21:57;98489.25;;;2.17;67.04
65384;BME280;51986;52.788;41.368;2023-03-11T13:32:24;98531.94;;;2.12;69.08
65384;BME280;51986;52.788;41.368;2023-03-11T13:40:51;98511.94;;;1.90;69.04
65384;BME280;51986;52.788;41.368;2023-03-11T13:43:21;98519.91;;;2.00;70.00
65384;BME280;51986;52.788;41.368;2023-03-11T13:46:46;98529.72;;;1.84;70.35
65384;BME280;51986;52.788;41.368;2023-03-11T13:48:47;98514.97;;;1.92;70.42
65384;BME280;51986;52.788;41.368;2023-03-11T13:51:24;98501.69;;;2.00;70.55
65384;BME280;51986;52.788;41.368;2023-03-11T13:54:26;98495.97;;;1.88;70.83
65384;BME280;51986;52.788;41.368;2023-03-11T13:57:00;98488.34;;;1.75;71.47
65384;BME280;51986;52.788;41.368;2023-03-11T13:59:33;98493.09;;;1.96;71.54
65384;BME280;51986;52.788;41.368;2023-03-11T14:02:15;98497.41;;;1.85;72.59
65384;BME280;51986;52.788;41.368;2023-03-11T14:04:49;98496.66;;;1.84;72.27
65384;BME280;51986;52.788;41.368;2023-03-11T14:12:48;98474.59;;;1.75;72.70
65384;BME280;51986;52.788;41.368;2023-03-11T14:15:25;98478.94;;;1.64;73.14
65384;BME280;51986;52.788;41.368;2023-03-11T14:17:53;98460.06;;;1.70;73.00
65384;BME280;51986;52.788;41.368;2023-03-11T14:20:51;98473.47;;;1.72;73.65
65384;BME280;51986;52.788;41.368;2023-03-11T14:23:19;98458.13;;;1.94;73.03
65384;BME280;51986;52.788;41.368;2023-03-11T14:25:46;98461.72;;;1.82;73.14
65384;BME280;51986;52.788;41.368;2023-03-11T14:28:19;98442.78;;;1.55;74.12
65384;BME280;51986;52.788;41.368;2023-03-11T14:30:58;98436.16;;;1.61;73.49
65384;BME280;51986;52.788;41.368;2023-03-11T14:33:26;98451.19;;;1.71;73.43
65384;BME280;51986;52.788;41.368;2023-03-11T14:36:00;98463.56;;;1.81;73.84
65384;BME280;51986;52.788;41.368;2023-03-11T14:38:30;98452.25;;;1.70;74.02
65384;BME280;51986;52.788;41.368;2023-03-11T14:41:00;98435.97;;;1.73;74.03
65384;BME280;51986;52.788;41.368;2023-03-11T14:43:31;98436.22;;;1.65;74.70
65384;BME280;51986;52.788;41.368;2023-03-11T14:46:02;98431.06;;;1.68;74.26
65384;BME280;51986;52.788;41.368;2023-03-11T14:48:37;98448.28;;;1.76;74.10
65384;BME280;51986;52.788;41.368;2023-03-11T14:51:36;98454.22;;;1.77;73.97